sensor_id;sensor_type;location;lat;lon;timestamp;P1;durP1;ratioP1;P2;durP2;ratioP2
3677;SDS011;1855;50.934;6.958;2022-08-21T00:01:40;7.53;;;6.80;;
3677;SDS011;1855;50.934;6.958;2022-08-21T00:04:07;8.38;;;7.28;;
3677;SDS011;1855;50.934;6.958;2022-08-21T00:06:35;8.57;;;7.68;;
3677;SDS011;1855;50.934;6.958;2022-08-21T00:09:04;8.30;;;7.60;;
3677;SDS011;1855;50.934;6.958;2022-08-21T00:11:33;8.95;;;8.15;;
3677;SDS011;1855;50.934;6.958;2022-08-21T00:14:02;8.45;;;7.85;;
3677;SDS011;1855;50.934;6.958;2022-08-21T00:16:31;9.10;;;8.20;;
3677;SDS011;1855;50.934;6.958;2022-08-21T00:18:59;10.02;;;8.98;;
3677;SDS011;1855;50.934;6.958;2022-08-21T00:21:26;10.45;;;9.38;;
3677;SDS011;1855;50.934;6.958;2022-08-21T00:23:53;10.07;;;9.05;;
3677;SDS011;1855;50.934;6.958;2022-08-21T00:26:20;11.60;;;9.53;;
3677;SDS011;1855;50.934;6.958;2022-08-21T00:28:47;11.30;;;9.73;;
3677;SDS011;1855;50.934;6.958;2022-08-21T00:31:14;10.57;;;8.90;;
3677;SDS011;1855;50.934;6.958;2022-08-21T00:33:42;9.95;;;9.15;;
3677;SDS011;1855;50.934;6.958;2022-08-21T00:36:10;11.05;;;8.82;;
3677;SDS011;1855;50.934;6.958;2022-08-21T00:38:37;11.50;;;9.40;;
3677;SDS011;1855;50.934;6.958;2022-08-21T00:41:05;10.40;;;9.30;;
3677;SDS011;1855;50.934;6.958;2022-08-21T00:43:35;10.23;;;9.05;;
3677;SDS011;1855;50.934;6.958;2022-08-21T00:46:04;10.77;;;9.68;;
3677;SDS011;1855;50.934;6.958;2022-08-21T00:48:32;10.43;;;9.53;;
3677;SDS011;1855;50.934;6.958;2022-08-21T00:51:01;11.40;;;10.30;;
3677;SDS011;1855;50.934;6.958;2022-08-21T00:53:32;12.05;;;9.32;;
3677;SDS011;1855;50.934;6.958;2022-08-21T00:56:02;10.07;;;8.15;;
3677;SDS011;1855;50.934;6.958;2022-08-21T00:58:30;9.48;;;8.35;;
3677;SDS011;1855;50.934;6.958;2022-08-21T01:01:00;9.30;;;8.30;;
3677;SDS011;1855;50.934;6.958;2022-08-21T01:03:29;10.38;;;8.07;;
3677;SDS011;1855;50.934;6.958;2022-08-21T01:05:56;9.00;;;8.10;;
3677;SDS011;1855;50.934;6.958;2022-08-21T01:08:23;9.43;;;8.00;;
3677;SDS011;1855;50.934;6.958;2022-08-21T01:10:52;8.35;;;7.38;;
3677;SDS011;1855;50.934;6.958;2022-08-21T01:13:20;8.80;;;8.00;;
3677;SDS011;1855;50.934;6.958;2022-08-21T01:15:49;9.30;;;8.40;;
3677;SDS011;1855;50.934;6.958;2022-08-21T01:18:19;8.80;;;8.00;;
3677;SDS011;1855;50.934;6.958;2022-08-21T01:20:57;10.27;;;7.70;;
3677;SDS011;1855;50.934;6.958;2022-08-21T01:23:26;8.65;;;7.75;;
3677;SDS011;1855;50.934;6.958;2022-08-21T01:25:53;8.63;;;7.80;;
3677;SDS011;1855;50.934;6.958;2022-08-21T01:28:21;8.90;;;8.00;;
3677;SDS011;1855;50.934;6.958;2022-08-21T01:30:50;9.20;;;8.30;;
3677;SDS011;1855;50.934;6.958;2022-08-21T01:33:19;8.88;;;7.97;;
3677;SDS011;1855;50.934;6.958;2022-08-21T01:35:47;9.15;;;8.07;;
3677;SDS011;1855;50.934;6.958;2022-08-21T01:38:16;8.55;;;7.85;;
3677;SDS011;1855;50.934;6.958;2022-08-21T01:40:43;9.00;;;8.10;;
3677;SDS011;1855;50.934;6.958;2022-08-21T01:43:10;9.57;;;8.05;;
3677;SDS011;1855;50.934;6.958;2022-08-21T01:45:36;8.45;;;7.65;;
3677;SDS011;1855;50.934;6.958;2022-08-21T01:48:03;9.10;;;8.20;;
3677;SDS011;1855;50.934;6.958;2022-08-21T01:50:31;8.97;;;8.07;;
3677;SDS011;1855;50.934;6.958;2022-08-21T01:52:58;10.05;;;8.52;;
3677;SDS011;1855;50.934;6.958;2022-08-21T01:55:26;10.20;;;8.80;;
3677;SDS011;1855;50.934;6.958;2022-08-21T01:57:53;9.60;;;8.70;;
3677;SDS011;1855;50.934;6.958;2022-08-21T02:00:21;9.73;;;8.73;;
3677;SDS011;1855;50.934;6.958;2022-08-21T02:02:49;9.57;;;8.57;;
3677;SDS011;1855;50.934;6.958;2022-08-21T02:05:16;9.35;;;8.43;;
3677;SDS011;1855;50.934;6.958;2022-08-21T02:07:44;9.90;;;9.05;;
3677;SDS011;1855;50.934;6.958;2022-08-21T02:10:13;9.70;;;8.73;;
3677;SDS011;1855;50.934;6.958;2022-08-21T02:12:43;11.03;;;9.40;;
3677;SDS011;1855;50.934;6.958;2022-08-21T02:15:10;10.25;;;9.20;;
3677;SDS011;1855;50.934;6.958;2022-08-21T02:17:38;10.40;;;9.30;;
3677;SDS011;1855;50.934;6.958;2022-08-21T02:20:07;10.07;;;9.20;;
3677;SDS011;1855;50.934;6.958;2022-08-21T02:22:35;10.60;;;9.15;;
3677;SDS011;1855;50.934;6.958;2022-08-21T02:25:02;10.30;;;9.30;;
3677;SDS011;1855;50.934;6.958;2022-08-21T02:27:29;12.45;;;9.57;;
3677;SDS011;1855;50.934;6.958;2022-08-21T02:30:07;10.57;;;9.57;;
3677;SDS011;1855;50.934;6.958;2022-08-21T02:32:35;10.50;;;9.50;;
3677;SDS011;1855;50.934;6.958;2022-08-21T02:35:02;12.57;;;11.37;;
3677;SDS011;1855;50.934;6.958;2022-08-21T02:37:29;13.75;;;12.45;;
3677;SDS011;1855;50.934;6.958;2022-08-21T02:39:56;14.30;;;12.90;;
3677;SDS011;1855;50.934;6.958;2022-08-21T02:42:24;15.53;;;14.13;;
3677;SDS011;1855;50.934;6.958;2022-08-21T02:44:51;14.90;;;13.65;;
3677;SDS011;1855;50.934;6.958;2022-08-21T02:47:19;15.50;;;14.13;;
3677;SDS011;1855;50.934;6.958;2022-08-21T02:49:46;16.35;;;15.05;;
3677;SDS011;1855;50.934;6.958;2022-08-21T02:52:13;17.65;;;15.85;;
3677;SDS011;1855;50.934;6.958;2022-08-21T02:54:39;15.80;;;14.40;;
3677;SDS011;1855;50.934;6.958;2022-08-21T02:57:07;16.65;;;15.15;;
3677;SDS011;1855;50.934;6.958;2022-08-21T02:59:34;17.45;;;15.95;;
3677;SDS011;1855;50.934;6.958;2022-08-21T03:02:01;16.75;;;15.35;;
3677;SDS011;1855;50.934;6.958;2022-08-21T03:04:29;17.52;;;15.82;;
3677;SDS011;1855;50.934;6.958;2022-08-21T03:06:56;18.40;;;16.80;;
3677;SDS011;1855;50.934;6.958;2022-08-21T03:09:23;17.15;;;15.65;;
3677;SDS011;1855;50.934;6.958;2022-08-21T03:11:50;18.27;;;16.63;;
3677;SDS011;1855;50.934;6.958;2022-08-21T03:14:17;17.23;;;15.63;;
3677;SDS011;1855;50.934;6.958;2022-08-21T03:16:44;17.10;;;15.70;;
3677;SDS011;1855;50.934;6.958;2022-08-21T03:19:11;16.48;;;15.05;;
3677;SDS011;1855;50.934;6.958;2022-08-21T03:21:39;15.50;;;14.20;;
3677;SDS011;1855;50.934;6.958;2022-08-21T03:24:06;14.73;;;13.50;;
3677;SDS011;1855;50.934;6.958;2022-08-21T03:26:33;13.75;;;12.50;;
3677;SDS011;1855;50.934;6.958;2022-08-21T03:29:00;13.75;;;12.50;;
3677;SDS011;1855;50.934;6.958;2022-08-21T03:31:27;13.25;;;11.85;;
3677;SDS011;1855;50.934;6.958;2022-08-21T03:33:56;13.20;;;11.90;;
3677;SDS011;1855;50.934;6.958;2022-08-21T03:36:23;13.27;;;11.98;;
3677;SDS011;1855;50.934;6.958;2022-08-21T03:38:52;12.40;;;11.30;;
3677;SDS011;1855;50.934;6.958;2022-08-21T03:41:19;12.03;;;10.83;;
3677;SDS011;1855;50.934;6.958;2022-08-21T03:43:47;12.50;;;11.20;;
3677;SDS011;1855;50.934;6.958;2022-08-21T03:46:14;11.63;;;10.48;;
3677;SDS011;1855;50.934;6.958;2022-08-21T03:48:41;10.98;;;9.75;;
3677;SDS011;1855;50.934;6.958;2022-08-21T03:51:08;10.02;;;9.13;;
3677;SDS011;1855;50.934;6.958;2022-08-21T03:53:35;11.07;;;9.10;;
3677;SDS011;1855;50.934;6.958;2022-08-21T03:56:04;10.13;;;9.20;;
3677;SDS011;1855;50.934;6.958;2022-08-21T03:58:31;10.43;;;9.18;;
3677;SDS011;1855;50.934;6.958;2022-08-21T04:00:59;10.25;;;9.00;;
3677;SDS011;1855;50.934;6.958;2022-08-21T04:03:27;10.27;;;8.77;;
3677;SDS011;1855;50.934;6.958;2022-08-21T04:05:54;10.48;;;9.18;;
3677;SDS011;1855;50.934;6.958;2022-08-21T04:08:21;9.65;;;8.73;;
3677;SDS011;1855;50.934;6.958;2022-08-21T04:10:48;10.07;;;9.00;;
3677;SDS011;1855;50.934;6.958;2022-08-21T04:13:20;10.73;;;9.90;;
3677;SDS011;1855;50.934;6.958;2022-08-21T04:15:48;9.48;;;8.68;;
3677;SDS011;1855;50.934;6.958;2022-08-21T04:18:15;10.50;;;9.40;;
3677;SDS011;1855;50.934;6.958;2022-08-21T04:20:43;10.75;;;9.75;;
3677;SDS011;1855;50.934;6.958;2022-08-21T04:23:12;9.75;;;8.85;;
3677;SDS011;1855;50.934;6.958;2022-08-21T04:25:39;10.50;;;9.50;;
3677;SDS011;1855;50.934;6.958;2022-08-21T04:28:05;10.32;;;9.40;;
3677;SDS011;1855;50.934;6.958;2022-08-21T04:30:33;10.10;;;9.10;;
3677;SDS011;1855;50.934;6.958;2022-08-21T04:33:00;9.93;;;8.93;;
3677;SDS011;1855;50.934;6.958;2022-08-21T04:35:28;10.93;;;8.70;;
3677;SDS011;1855;50.934;6.958;2022-08-21T04:37:55;9.18;;;8.38;;
3677;SDS011;1855;50.934;6.958;2022-08-21T04:40:22;9.65;;;8.65;;
3677;SDS011;1855;50.934;6.958;2022-08-21T04:42:52;9.63;;;8.60;;
3677;SDS011;1855;50.934;6.958;2022-08-21T04:45:21;10.18;;;8.57;;
3677;SDS011;1855;50.934;6.958;2022-08-21T04:47:51;9.63;;;8.40;;
3677;SDS011;1855;50.934;6.958;2022-08-21T04:50:19;10.23;;;8.90;;
3677;SDS011;1855;50.934;6.958;2022-08-21T04:52:47;9.45;;;8.45;;
3677;SDS011;1855;50.934;6.958;2022-08-21T04:55:15;9.88;;;8.93;;
3677;SDS011;1855;50.934;6.958;2022-08-21T04:57:42;10.85;;;8.70;;
3677;SDS011;1855;50.934;6.958;2022-08-21T05:00:10;9.13;;;8.32;;
3677;SDS011;1855;50.934;6.958;2022-08-21T05:02:38;10.20;;;9.13;;
3677;SDS011;1855;50.934;6.958;2022-08-21T05:05:08;9.65;;;8.77;;
3677;SDS011;1855;50.934;6.958;2022-08-21T05:07:35;9.50;;;8.60;;
3677;SDS011;1855;50.934;6.958;2022-08-21T05:10:02;8.82;;;8.02;;
3677;SDS011;1855;50.934;6.958;2022-08-21T05:12:30;9.30;;;8.40;;
3677;SDS011;1855;50.934;6.958;2022-08-21T05:14:58;8.95;;;8.15;;
3677;SDS011;1855;50.934;6.958;2022-08-21T05:17:25;9.77;;;8.77;;
3677;SDS011;1855;50.934;6.958;2022-08-21T05:19:52;9.68;;;8.68;;
3677;SDS011;1855;50.934;6.958;2022-08-21T05:22:20;10.00;;;9.10;;
3677;SDS011;1855;50.934;6.958;2022-08-21T05:24:49;9.73;;;8.93;;
3677;SDS011;1855;50.934;6.958;2022-08-21T05:27:16;10.05;;;9.05;;
3677;SDS011;1855;50.934;6.958;2022-08-21T05:29:43;10.07;;;9.07;;
3677;SDS011;1855;50.934;6.958;2022-08-21T05:32:10;9.50;;;8.40;;
3677;SDS011;1855;50.934;6.958;2022-08-21T05:34:38;9.43;;;8.73;;
3677;SDS011;1855;50.934;6.958;2022-08-21T05:37:05;10.18;;;9.30;;
3677;SDS011;1855;50.934;6.958;2022-08-21T05:39:33;10.73;;;8.65;;
3677;SDS011;1855;50.934;6.958;2022-08-21T05:42:00;9.90;;;9.10;;
3677;SDS011;1855;50.934;6.958;2022-08-21T05:44:27;10.48;;;9.48;;
3677;SDS011;1855;50.934;6.958;2022-08-21T05:46:54;9.45;;;8.50;;
3677;SDS011;1855;50.934;6.958;2022-08-21T05:49:21;12.02;;;9.18;;
3677;SDS011;1855;50.934;6.958;2022-08-21T05:51:47;9.52;;;8.73;;
3677;SDS011;1855;50.934;6.958;2022-08-21T05:54:14;9.60;;;8.60;;
3677;SDS011;1855;50.934;6.958;2022-08-21T05:56:42;10.38;;;9.30;;
3677;SDS011;1855;50.934;6.958;2022-08-21T05:59:09;9.93;;;8.93;;
3677;SDS011;1855;50.934;6.958;2022-08-21T06:01:38;9.50;;;8.50;;
3677;SDS011;1855;50.934;6.958;2022-08-21T06:04:05;9.50;;;8.60;;
3677;SDS011;1855;50.934;6.958;2022-08-21T06:06:33;9.50;;;8.60;;
3677;SDS011;1855;50.934;6.958;2022-08-21T06:09:00;9.40;;;8.50;;
3677;SDS011;1855;50.934;6.958;2022-08-21T06:11:28;10.00;;;9.00;;
3677;SDS011;1855;50.934;6.958;2022-08-21T06:13:56;9.00;;;8.10;;
3677;SDS011;1855;50.934;6.958;2022-08-21T06:16:24;9.30;;;8.38;;
3677;SDS011;1855;50.934;6.958;2022-08-21T06:18:52;8.90;;;8.00;;
3677;SDS011;1855;50.934;6.958;2022-08-21T06:21:19;7.82;;;7.13;;
3677;SDS011;1855;50.934;6.958;2022-08-21T06:23:46;9.07;;;7.30;;
3677;SDS011;1855;50.934;6.958;2022-08-21T06:26:13;7.88;;;7.07;;
3677;SDS011;1855;50.934;6.958;2022-08-21T06:28:40;8.43;;;7.03;;
3677;SDS011;1855;50.934;6.958;2022-08-21T06:31:14;8.10;;;6.90;;
3677;SDS011;1855;50.934;6.958;2022-08-21T06:33:42;7.07;;;6.45;;
3677;SDS011;1855;50.934;6.958;2022-08-21T06:36:09;7.27;;;6.57;;
3677;SDS011;1855;50.934;6.958;2022-08-21T06:38:36;7.03;;;6.30;;
3677;SDS011;1855;50.934;6.958;2022-08-21T06:41:04;7.50;;;6.78;;
3677;SDS011;1855;50.934;6.958;2022-08-21T06:43:32;7.65;;;6.70;;
3677;SDS011;1855;50.934;6.958;2022-08-21T06:45:59;6.00;;;5.40;;
3677;SDS011;1855;50.934;6.958;2022-08-21T06:48:27;7.30;;;5.70;;
3677;SDS011;1855;50.934;6.958;2022-08-21T06:50:54;7.05;;;6.30;;
3677;SDS011;1855;50.934;6.958;2022-08-21T06:53:21;7.57;;;5.90;;
3677;SDS011;1855;50.934;6.958;2022-08-21T06:55:48;8.80;;;6.20;;
3677;SDS011;1855;50.934;6.958;2022-08-21T06:58:15;6.50;;;5.90;;
3677;SDS011;1855;50.934;6.958;2022-08-21T07:00:45;6.53;;;5.88;;
3677;SDS011;1855;50.934;6.958;2022-08-21T07:03:20;7.00;;;5.93;;
3677;SDS011;1855;50.934;6.958;2022-08-21T07:05:50;5.78;;;4.90;;
3677;SDS011;1855;50.934;6.958;2022-08-21T07:08:17;6.40;;;4.72;;
3677;SDS011;1855;50.934;6.958;2022-08-21T07:10:44;5.30;;;4.70;;
3677;SDS011;1855;50.934;6.958;2022-08-21T07:13:13;7.13;;;5.00;;
3677;SDS011;1855;50.934;6.958;2022-08-21T07:15:40;6.10;;;4.40;;
3677;SDS011;1855;50.934;6.958;2022-08-21T07:18:07;5.63;;;3.95;;
3677;SDS011;1855;50.934;6.958;2022-08-21T07:20:34;5.35;;;3.78;;
3677;SDS011;1855;50.934;6.958;2022-08-21T07:23:03;4.80;;;3.60;;
3677;SDS011;1855;50.934;6.958;2022-08-21T07:25:33;5.60;;;3.80;;
3677;SDS011;1855;50.934;6.958;2022-08-21T07:28:00;4.30;;;3.10;;
3677;SDS011;1855;50.934;6.958;2022-08-21T07:30:27;4.82;;;3.13;;
3677;SDS011;1855;50.934;6.958;2022-08-21T07:32:55;4.00;;;3.00;;
3677;SDS011;1855;50.934;6.958;2022-08-21T07:35:22;6.70;;;3.20;;
3677;SDS011;1855;50.934;6.958;2022-08-21T07:37:49;3.42;;;2.90;;
3677;SDS011;1855;50.934;6.958;2022-08-21T07:40:17;6.15;;;3.17;;
3677;SDS011;1855;50.934;6.958;2022-08-21T07:42:45;6.70;;;3.00;;
3677;SDS011;1855;50.934;6.958;2022-08-21T07:45:15;4.32;;;2.75;;
3677;SDS011;1855;50.934;6.958;2022-08-21T07:47:42;3.58;;;2.47;;
3677;SDS011;1855;50.934;6.958;2022-08-21T07:50:09;3.78;;;2.75;;
3677;SDS011;1855;50.934;6.958;2022-08-21T07:52:37;5.20;;;2.70;;
3677;SDS011;1855;50.934;6.958;2022-08-21T07:55:04;4.80;;;2.40;;
3677;SDS011;1855;50.934;6.958;2022-08-21T07:57:34;3.67;;;2.28;;
3677;SDS011;1855;50.934;6.958;2022-08-21T08:00:01;3.17;;;2.45;;
3677;SDS011;1855;50.934;6.958;2022-08-21T08:02:28;3.80;;;2.20;;
3677;SDS011;1855;50.934;6.958;2022-08-21T08:04:57;6.30;;;2.67;;
3677;SDS011;1855;50.934;6.958;2022-08-21T08:07:25;3.22;;;2.08;;
3677;SDS011;1855;50.934;6.958;2022-08-21T08:09:52;6.50;;;2.53;;
3677;SDS011;1855;50.934;6.958;2022-08-21T08:12:19;5.67;;;2.60;;
3677;SDS011;1855;50.934;6.958;2022-08-21T08:14:47;5.88;;;2.30;;
3677;SDS011;1855;50.934;6.958;2022-08-21T08:17:14;3.38;;;1.92;;
3677;SDS011;1855;50.934;6.958;2022-08-21T08:19:41;4.47;;;2.05;;
3677;SDS011;1855;50.934;6.958;2022-08-21T08:22:14;3.30;;;2.13;;
3677;SDS011;1855;50.934;6.958;2022-08-21T08:24:42;4.32;;;2.00;;
3677;SDS011;1855;50.934;6.958;2022-08-21T08:27:09;5.07;;;2.50;;
3677;SDS011;1855;50.934;6.958;2022-08-21T08:29:36;3.40;;;1.90;;
3677;SDS011;1855;50.934;6.958;2022-08-21T08:32:04;3.95;;;2.05;;
3677;SDS011;1855;50.934;6.958;2022-08-21T08:34:32;3.15;;;1.90;;
3677;SDS011;1855;50.934;6.958;2022-08-21T08:36:59;3.25;;;1.70;;
3677;SDS011;1855;50.934;6.958;2022-08-21T08:39:26;5.40;;;2.20;;
3677;SDS011;1855;50.934;6.958;2022-08-21T08:41:54;5.55;;;2.35;;
3677;SDS011;1855;50.934;6.958;2022-08-21T08:44:25;4.28;;;2.10;;
3677;SDS011;1855;50.934;6.958;2022-08-21T08:46:52;4.50;;;2.08;;
3677;SDS011;1855;50.934;6.958;2022-08-21T08:49:23;5.07;;;1.70;;
3677;SDS011;1855;50.934;6.958;2022-08-21T08:51:57;3.10;;;1.65;;
3677;SDS011;1855;50.934;6.958;2022-08-21T08:54:29;4.40;;;2.17;;
3677;SDS011;1855;50.934;6.958;2022-08-21T08:57:01;3.65;;;1.50;;
3677;SDS011;1855;50.934;6.958;2022-08-21T08:59:33;4.90;;;1.92;;
3677;SDS011;1855;50.934;6.958;2022-08-21T09:02:05;3.60;;;1.83;;
3677;SDS011;1855;50.934;6.958;2022-08-21T09:04:33;3.37;;;1.77;;
3677;SDS011;1855;50.934;6.958;2022-08-21T09:07:04;6.32;;;1.90;;
3677;SDS011;1855;50.934;6.958;2022-08-21T09:09:41;5.05;;;1.80;;
3677;SDS011;1855;50.934;6.958;2022-08-21T09:12:19;4.60;;;1.90;;
3677;SDS011;1855;50.934;6.958;2022-08-21T09:15:01;4.50;;;1.85;;
3677;SDS011;1855;50.934;6.958;2022-08-21T09:17:36;5.45;;;2.30;;
3677;SDS011;1855;50.934;6.958;2022-08-21T09:20:12;3.40;;;1.88;;
3677;SDS011;1855;50.934;6.958;2022-08-21T09:22:48;5.90;;;1.70;;
3677;SDS011;1855;50.934;6.958;2022-08-21T09:25:26;4.22;;;1.80;;
3677;SDS011;1855;50.934;6.958;2022-08-21T09:27:57;3.83;;;1.80;;
3677;SDS011;1855;50.934;6.958;2022-08-21T09:30:25;4.70;;;1.83;;
3677;SDS011;1855;50.934;6.958;2022-08-21T09:32:54;3.30;;;2.07;;
3677;SDS011;1855;50.934;6.958;2022-08-21T09:35:23;3.70;;;1.67;;
3677;SDS011;1855;50.934;6.958;2022-08-21T09:37:51;4.38;;;1.60;;
3677;SDS011;1855;50.934;6.958;2022-08-21T09:40:33;3.75;;;1.40;;
3677;SDS011;1855;50.934;6.958;2022-08-21T09:43:04;4.20;;;1.60;;
3677;SDS011;1855;50.934;6.958;2022-08-21T09:45:33;3.60;;;1.67;;
3677;SDS011;1855;50.934;6.958;2022-08-21T09:48:10;6.13;;;2.13;;
3677;SDS011;1855;50.934;6.958;2022-08-21T09:50:39;4.90;;;2.05;;
3677;SDS011;1855;50.934;6.958;2022-08-21T09:53:15;3.67;;;1.98;;
3677;SDS011;1855;50.934;6.958;2022-08-21T09:55:49;3.90;;;1.60;;
3677;SDS011;1855;50.934;6.958;2022-08-21T09:58:36;5.80;;;2.00;;
3677;SDS011;1855;50.934;6.958;2022-08-21T10:01:05;2.90;;;1.45;;
3677;SDS011;1855;50.934;6.958;2022-08-21T10:03:33;4.00;;;1.45;;
3677;SDS011;1855;50.934;6.958;2022-08-21T10:06:02;5.20;;;1.58;;
3677;SDS011;1855;50.934;6.958;2022-08-21T10:08:34;4.80;;;1.70;;
3677;SDS011;1855;50.934;6.958;2022-08-21T10:11:02;4.47;;;1.58;;
3677;SDS011;1855;50.934;6.958;2022-08-21T10:13:40;3.60;;;1.42;;
3677;SDS011;1855;50.934;6.958;2022-08-21T10:16:17;3.60;;;1.70;;
3677;SDS011;1855;50.934;6.958;2022-08-21T10:18:56;3.33;;;1.80;;
3677;SDS011;1855;50.934;6.958;2022-08-21T10:21:37;2.92;;;1.40;;
3677;SDS011;1855;50.934;6.958;2022-08-21T10:24:10;3.80;;;1.70;;
3677;SDS011;1855;50.934;6.958;2022-08-21T10:26:47;4.00;;;1.42;;
3677;SDS011;1855;50.934;6.958;2022-08-21T10:29:28;4.13;;;1.50;;
3677;SDS011;1855;50.934;6.958;2022-08-21T10:32:11;3.00;;;1.27;;
3677;SDS011;1855;50.934;6.958;2022-08-21T10:34:53;3.38;;;1.60;;
3677;SDS011;1855;50.934;6.958;2022-08-21T10:37:31;3.30;;;1.60;;
3677;SDS011;1855;50.934;6.958;2022-08-21T10:40:07;4.15;;;1.80;;
3677;SDS011;1855;50.934;6.958;2022-08-21T10:42:45;4.35;;;1.48;;
3677;SDS011;1855;50.934;6.958;2022-08-21T10:45:21;4.40;;;1.90;;
3677;SDS011;1855;50.934;6.958;2022-08-21T10:47:59;3.90;;;1.55;;
3677;SDS011;1855;50.934;6.958;2022-08-21T10:50:31;2.60;;;1.27;;
3677;SDS011;1855;50.934;6.958;2022-08-21T10:53:11;3.90;;;1.50;;
3677;SDS011;1855;50.934;6.958;2022-08-21T10:55:49;3.70;;;1.60;;
3677;SDS011;1855;50.934;6.958;2022-08-21T10:58:22;2.97;;;1.30;;
3677;SDS011;1855;50.934;6.958;2022-08-21T11:00:53;3.13;;;1.40;;
3677;SDS011;1855;50.934;6.958;2022-08-21T11:03:25;3.50;;;1.50;;
3677;SDS011;1855;50.934;6.958;2022-08-21T11:05:59;4.32;;;1.80;;
3677;SDS011;1855;50.934;6.958;2022-08-21T11:08:33;2.55;;;1.40;;
3677;SDS011;1855;50.934;6.958;2022-08-21T11:11:06;3.80;;;1.70;;
3677;SDS011;1855;50.934;6.958;2022-08-21T11:13:39;3.38;;;1.40;;
3677;SDS011;1855;50.934;6.958;2022-08-21T11:16:10;2.67;;;1.55;;
3677;SDS011;1855;50.934;6.958;2022-08-21T11:18:43;2.83;;;1.20;;
3677;SDS011;1855;50.934;6.958;2022-08-21T11:21:19;3.30;;;1.40;;
3677;SDS011;1855;50.934;6.958;2022-08-21T11:23:57;3.60;;;1.40;;
3677;SDS011;1855;50.934;6.958;2022-08-21T11:26:30;2.95;;;1.10;;
3677;SDS011;1855;50.934;6.958;2022-08-21T11:29:06;2.17;;;1.40;;
3677;SDS011;1855;50.934;6.958;2022-08-21T11:31:44;3.08;;;1.40;;
3677;SDS011;1855;50.934;6.958;2022-08-21T11:34:26;2.72;;;1.30;;
3677;SDS011;1855;50.934;6.958;2022-08-21T11:37:08;4.68;;;1.40;;
3677;SDS011;1855;50.934;6.958;2022-08-21T11:39:44;3.22;;;1.10;;
3677;SDS011;1855;50.934;6.958;2022-08-21T11:42:19;3.00;;;1.40;;
3677;SDS011;1855;50.934;6.958;2022-08-21T11:44:59;2.90;;;1.17;;
3677;SDS011;1855;50.934;6.958;2022-08-21T11:47:41;2.30;;;1.00;;
3677;SDS011;1855;50.934;6.958;2022-08-21T11:50:15;2.55;;;1.20;;
3677;SDS011;1855;50.934;6.958;2022-08-21T11:52:45;2.23;;;1.00;;
3677;SDS011;1855;50.934;6.958;2022-08-21T11:55:22;3.15;;;1.45;;
3677;SDS011;1855;50.934;6.958;2022-08-21T11:57:53;2.75;;;1.20;;
3677;SDS011;1855;50.934;6.958;2022-08-21T12:00:25;2.30;;;1.20;;
3677;SDS011;1855;50.934;6.958;2022-08-21T12:02:56;2.95;;;1.50;;
3677;SDS011;1855;50.934;6.958;2022-08-21T12:05:32;2.38;;;1.10;;
3677;SDS011;1855;50.934;6.958;2022-08-21T12:08:03;2.10;;;1.00;;
3677;SDS011;1855;50.934;6.958;2022-08-21T12:10:38;2.25;;;1.05;;
3677;SDS011;1855;50.934;6.958;2022-08-21T12:13:08;3.10;;;1.20;;
3677;SDS011;1855;50.934;6.958;2022-08-21T12:15:38;3.35;;;1.20;;
3677;SDS011;1855;50.934;6.958;2022-08-21T12:18:06;2.20;;;1.10;;
3677;SDS011;1855;50.934;6.958;2022-08-21T12:20:56;3.53;;;1.20;;
3677;SDS011;1855;50.934;6.958;2022-08-21T12:23:27;2.10;;;1.13;;
3677;SDS011;1855;50.934;6.958;2022-08-21T12:26:09;2.88;;;1.10;;
3677;SDS011;1855;50.934;6.958;2022-08-21T12:28:44;1.95;;;0.95;;
3677;SDS011;1855;50.934;6.958;2022-08-21T12:31:19;2.20;;;1.10;;
3677;SDS011;1855;50.934;6.958;2022-08-21T12:33:50;3.25;;;1.10;;
3677;SDS011;1855;50.934;6.958;2022-08-21T12:36:22;2.22;;;1.20;;
3677;SDS011;1855;50.934;6.958;2022-08-21T12:38:52;2.37;;;1.30;;
3677;SDS011;1855;50.934;6.958;2022-08-21T12:41:26;1.90;;;1.00;;
3677;SDS011;1855;50.934;6.958;2022-08-21T12:43:57;1.90;;;1.10;;
3677;SDS011;1855;50.934;6.958;2022-08-21T12:46:28;3.00;;;0.90;;
3677;SDS011;1855;50.934;6.958;2022-08-21T12:49:01;3.13;;;1.10;;
3677;SDS011;1855;50.934;6.958;2022-08-21T12:51:36;2.10;;;1.10;;
3677;SDS011;1855;50.934;6.958;2022-08-21T12:54:21;1.80;;;0.95;;
3677;SDS011;1855;50.934;6.958;2022-08-21T12:56:59;2.90;;;1.20;;
3677;SDS011;1855;50.934;6.958;2022-08-21T12:59:27;2.08;;;1.38;;
3677;SDS011;1855;50.934;6.958;2022-08-21T13:01:55;2.35;;;1.35;;
3677;SDS011;1855;50.934;6.958;2022-08-21T13:04:26;2.30;;;1.00;;
3677;SDS011;1855;50.934;6.958;2022-08-21T13:07:04;3.20;;;1.20;;
3677;SDS011;1855;50.934;6.958;2022-08-21T13:09:36;2.22;;;1.30;;
3677;SDS011;1855;50.934;6.958;2022-08-21T13:12:11;2.55;;;1.10;;
3677;SDS011;1855;50.934;6.958;2022-08-21T13:14:40;2.85;;;1.20;;
3677;SDS011;1855;50.934;6.958;2022-08-21T13:17:09;3.28;;;1.50;;
3677;SDS011;1855;50.934;6.958;2022-08-21T13:19:37;3.58;;;1.30;;
3677;SDS011;1855;50.934;6.958;2022-08-21T13:22:04;1.80;;;1.05;;
3677;SDS011;1855;50.934;6.958;2022-08-21T13:24:39;2.75;;;1.20;;
3677;SDS011;1855;50.934;6.958;2022-08-21T13:27:16;3.42;;;1.27;;
3677;SDS011;1855;50.934;6.958;2022-08-21T13:29:45;2.90;;;1.30;;
3677;SDS011;1855;50.934;6.958;2022-08-21T13:32:17;2.60;;;1.10;;
3677;SDS011;1855;50.934;6.958;2022-08-21T13:34:48;2.97;;;1.30;;
3677;SDS011;1855;50.934;6.958;2022-08-21T13:37:16;2.90;;;1.30;;
3677;SDS011;1855;50.934;6.958;2022-08-21T13:39:48;2.72;;;1.27;;
3677;SDS011;1855;50.934;6.958;2022-08-21T13:42:18;2.67;;;1.00;;
3677;SDS011;1855;50.934;6.958;2022-08-21T13:44:46;2.42;;;1.10;;
3677;SDS011;1855;50.934;6.958;2022-08-21T13:47:15;3.03;;;1.50;;
3677;SDS011;1855;50.934;6.958;2022-08-21T13:49:44;2.47;;;1.30;;
3677;SDS011;1855;50.934;6.958;2022-08-21T13:52:14;2.60;;;1.10;;
3677;SDS011;1855;50.934;6.958;2022-08-21T13:54:44;2.33;;;1.10;;
3677;SDS011;1855;50.934;6.958;2022-08-21T13:57:25;3.03;;;1.55;;
3677;SDS011;1855;50.934;6.958;2022-08-21T14:02:37;2.40;;;1.20;;
3677;SDS011;1855;50.934;6.958;2022-08-21T14:05:06;2.60;;;1.30;;
3677;SDS011;1855;50.934;6.958;2022-08-21T14:07:40;2.50;;;1.60;;
3677;SDS011;1855;50.934;6.958;2022-08-21T14:10:11;3.80;;;1.60;;
3677;SDS011;1855;50.934;6.958;2022-08-21T14:12:43;3.47;;;1.40;;
3677;SDS011;1855;50.934;6.958;2022-08-21T14:15:13;2.58;;;1.42;;
3677;SDS011;1855;50.934;6.958;2022-08-21T14:17:41;1.67;;;1.23;;
3677;SDS011;1855;50.934;6.958;2022-08-21T14:20:09;2.23;;;1.00;;
3677;SDS011;1855;50.934;6.958;2022-08-21T14:22:40;2.30;;;1.20;;
3677;SDS011;1855;50.934;6.958;2022-08-21T14:25:10;3.22;;;1.30;;
3677;SDS011;1855;50.934;6.958;2022-08-21T14:27:40;3.15;;;1.25;;
3677;SDS011;1855;50.934;6.958;2022-08-21T14:30:16;2.30;;;1.35;;
3677;SDS011;1855;50.934;6.958;2022-08-21T14:32:47;2.60;;;1.30;;
3677;SDS011;1855;50.934;6.958;2022-08-21T14:35:14;2.50;;;1.20;;
3677;SDS011;1855;50.934;6.958;2022-08-21T14:37:42;2.40;;;1.40;;
3677;SDS011;1855;50.934;6.958;2022-08-21T14:40:10;2.33;;;1.20;;
3677;SDS011;1855;50.934;6.958;2022-08-21T14:42:37;2.72;;;1.42;;
3677;SDS011;1855;50.934;6.958;2022-08-21T14:45:10;2.60;;;1.30;;
3677;SDS011;1855;50.934;6.958;2022-08-21T14:47:39;3.10;;;1.20;;
3677;SDS011;1855;50.934;6.958;2022-08-21T14:50:08;2.37;;;1.37;;
3677;SDS011;1855;50.934;6.958;2022-08-21T14:52:35;2.00;;;1.20;;
3677;SDS011;1855;50.934;6.958;2022-08-21T14:55:02;3.85;;;1.40;;
3677;SDS011;1855;50.934;6.958;2022-08-21T14:57:30;2.10;;;1.20;;
3677;SDS011;1855;50.934;6.958;2022-08-21T14:59:58;2.40;;;1.10;;
3677;SDS011;1855;50.934;6.958;2022-08-21T15:02:26;1.70;;;1.00;;
3677;SDS011;1855;50.934;6.958;2022-08-21T15:04:53;2.30;;;1.27;;
3677;SDS011;1855;50.934;6.958;2022-08-21T15:07:20;2.97;;;1.60;;
3677;SDS011;1855;50.934;6.958;2022-08-21T15:09:47;2.92;;;1.70;;
3677;SDS011;1855;50.934;6.958;2022-08-21T15:12:13;4.05;;;2.72;;
3677;SDS011;1855;50.934;6.958;2022-08-21T15:14:40;4.65;;;4.25;;
3677;SDS011;1855;50.934;6.958;2022-08-21T15:17:08;4.30;;;1.70;;
3677;SDS011;1855;50.934;6.958;2022-08-21T15:19:38;2.05;;;1.50;;
3677;SDS011;1855;50.934;6.958;2022-08-21T15:22:05;1.77;;;1.30;;
3677;SDS011;1855;50.934;6.958;2022-08-21T15:24:32;2.70;;;1.30;;
3677;SDS011;1855;50.934;6.958;2022-08-21T15:26:59;2.38;;;1.20;;
3677;SDS011;1855;50.934;6.958;2022-08-21T15:29:28;2.00;;;1.20;;